createdAt,value
2023-04-28T00:00:10.442Z,8.60
2023-04-28T00:02:41.415Z,8.07
2023-04-28T00:05:14.710Z,7.55
2023-04-28T00:07:45.784Z,7.97
2023-04-28T00:10:16.415Z,7.55
2023-04-28T00:12:47.108Z,7.47
2023-04-28T00:15:17.958Z,8.43
2023-04-28T00:17:48.487Z,7.40
2023-04-28T00:20:19.515Z,8.15
2023-04-28T00:22:51.893Z,6.65
2023-04-28T00:25:22.488Z,7.55
2023-04-28T00:27:53.152Z,7.28
2023-04-28T00:30:23.770Z,8.35
2023-04-28T00:32:54.192Z,7.18
2023-04-28T00:35:25.792Z,7.57
2023-04-28T00:37:56.150Z,7.35
2023-04-28T00:40:34.659Z,6.95
2023-04-28T00:43:05.891Z,6.55
2023-04-28T00:45:37.508Z,6.47
2023-04-28T00:48:08.187Z,6.82
2023-04-28T00:50:39.292Z,6.20
2023-04-28T00:53:10.152Z,6.72
2023-04-28T00:55:42.177Z,6.78
2023-04-28T00:58:12.892Z,5.95
2023-04-28T01:00:44.454Z,6.70
2023-04-28T01:03:15.208Z,6.65
2023-04-28T01:05:46.548Z,6.18
2023-04-28T01:08:17.088Z,6.70
2023-04-28T01:10:47.935Z,6.72
2023-04-28T01:13:34.082Z,5.93
2023-04-28T01:16:04.588Z,6.20
2023-04-28T01:18:36.445Z,6.32
2023-04-28T01:21:07.835Z,7.13
2023-04-28T01:23:38.299Z,6.25
2023-04-28T01:26:09.426Z,6.03
2023-04-28T01:28:39.841Z,5.72
2023-04-28T01:31:10.282Z,5.95
2023-04-28T01:33:41.401Z,5.97
2023-04-28T01:36:12.438Z,5.85
2023-04-28T01:38:43.109Z,6.20
2023-04-28T01:41:15.863Z,5.38
2023-04-28T01:43:46.222Z,5.78
2023-04-28T01:46:16.645Z,5.78
2023-04-28T01:48:47.049Z,6.07
2023-04-28T01:51:18.203Z,6.32
2023-04-28T01:53:48.597Z,6.78
2023-04-28T01:56:19.447Z,6.63
2023-04-28T01:58:50.158Z,5.60
2023-04-28T02:01:21.203Z,5.72
2023-04-28T02:03:53.503Z,5.63
2023-04-28T02:06:24.260Z,6.15
2023-04-28T02:08:54.734Z,5.55
2023-04-28T02:11:25.135Z,5.60
2023-04-28T02:14:02.001Z,5.88
2023-04-28T02:16:34.694Z,5.47
2023-04-28T02:19:05.119Z,6.00
2023-04-28T02:21:35.535Z,5.55
2023-04-28T02:24:06.308Z,5.53
2023-04-28T02:26:37.115Z,5.35
2023-04-28T02:29:07.765Z,7.50
2023-04-28T02:31:39.557Z,7.00
2023-04-28T02:34:09.988Z,6.72
2023-04-28T02:36:42.124Z,6.70
2023-04-28T02:39:12.802Z,7.45
2023-04-28T02:41:43.195Z,6.97
2023-04-28T02:44:13.649Z,7.00
2023-04-28T02:46:44.163Z,6.70
2023-04-28T02:49:14.985Z,7.47
2023-04-28T02:51:46.557Z,6.47
2023-04-28T02:54:17.161Z,6.40
2023-04-28T02:56:47.756Z,6.72
2023-04-28T02:59:18.237Z,5.65
2023-04-28T03:01:49.557Z,6.70
2023-04-28T03:04:20.584Z,7.20
2023-04-28T03:06:53.215Z,6.50
2023-04-28T03:09:24.379Z,6.30
2023-04-28T03:11:54.587Z,6.82
2023-04-28T03:14:25.314Z,5.70
2023-04-28T03:16:58.016Z,6.20
2023-04-28T03:19:28.699Z,5.68
2023-04-28T03:21:59.065Z,6.00
2023-04-28T03:24:30.122Z,5.93
2023-04-28T03:27:00.639Z,5.90
2023-04-28T03:29:31.249Z,6.03
2023-04-28T03:32:01.727Z,6.13
2023-04-28T03:34:32.033Z,6.55
2023-04-28T03:37:03.122Z,6.60
2023-04-28T03:39:34.254Z,5.82
2023-04-28T03:42:04.990Z,5.78
2023-04-28T03:44:54.294Z,6.40
2023-04-28T03:47:25.337Z,6.47
2023-04-28T03:49:55.959Z,5.97
2023-04-28T03:52:27.867Z,5.90
2023-04-28T03:54:58.573Z,5.93
2023-04-28T03:57:29.089Z,6.20
2023-04-28T03:59:59.832Z,5.82
2023-04-28T04:02:33.461Z,6.22
2023-04-28T04:05:04.635Z,5.20
2023-04-28T04:07:35.162Z,5.43
2023-04-28T04:10:05.694Z,5.88
2023-04-28T04:12:37.846Z,5.05
2023-04-28T04:15:10.191Z,5.40
2023-04-28T04:17:42.388Z,5.00
2023-04-28T04:20:13.250Z,5.43
2023-04-28T04:22:44.275Z,4.85
2023-04-28T04:25:16.223Z,5.43
2023-04-28T04:27:50.908Z,5.15
2023-04-28T04:30:22.379Z,5.50
2023-04-28T04:32:53.202Z,4.97
2023-04-28T04:35:24.581Z,5.25
2023-04-28T04:37:55.784Z,5.72
2023-04-28T04:40:27.200Z,4.78
2023-04-28T04:42:58.766Z,4.75
2023-04-28T04:45:31.084Z,5.00
2023-04-28T04:48:05.779Z,5.25
2023-04-28T04:50:36.217Z,5.22
2023-04-28T04:53:10.565Z,4.90
2023-04-28T04:55:43.866Z,4.60
2023-04-28T04:58:15.401Z,5.57
2023-04-28T05:01:06.036Z,5.20
2023-04-28T05:03:36.496Z,5.07
2023-04-28T05:06:07.128Z,22.40
2023-04-28T05:08:47.913Z,14.98
2023-04-28T05:11:18.709Z,12.20
2023-04-28T05:13:49.912Z,49.85
2023-04-28T05:16:20.558Z,18.48
2023-04-28T05:18:51.314Z,26.80
2023-04-28T05:21:21.615Z,20.42
2023-04-28T05:23:52.473Z,12.52
2023-04-28T05:26:23.030Z,12.48
2023-04-28T05:28:57.012Z,12.57
2023-04-28T05:31:28.622Z,11.05
2023-04-28T05:34:00.269Z,9.77
2023-04-28T05:36:30.840Z,10.02
2023-04-28T05:39:02.027Z,8.57
2023-04-28T05:41:33.008Z,8.25
2023-04-28T05:44:03.341Z,9.05
2023-04-28T05:46:34.745Z,8.90
2023-04-28T05:49:05.901Z,9.15
2023-04-28T05:51:40.305Z,8.95
2023-04-28T05:54:11.452Z,7.28
2023-04-28T05:56:46.846Z,7.20
2023-04-28T05:59:17.594Z,7.20
2023-04-28T06:01:48.292Z,7.18
2023-04-28T06:04:19.232Z,7.20
2023-04-28T06:06:51.650Z,6.10
2023-04-28T06:09:22.194Z,6.93
2023-04-28T06:11:52.652Z,7.00
2023-04-28T06:14:24.443Z,6.78
2023-04-28T06:16:54.907Z,6.15
2023-04-28T06:19:26.437Z,6.00
2023-04-28T06:21:56.961Z,6.20
2023-04-28T06:24:28.276Z,5.95
2023-04-28T06:27:00.289Z,6.25
2023-04-28T06:29:31.243Z,6.10
2023-04-28T06:32:01.576Z,6.15
2023-04-28T06:34:33.095Z,5.72
2023-04-28T06:37:03.720Z,5.40
2023-04-28T06:39:34.199Z,5.63
2023-04-28T06:42:04.779Z,5.60
2023-04-28T06:44:38.189Z,6.35
2023-04-28T06:47:08.624Z,5.53
2023-04-28T06:52:11.972Z,5.60
2023-04-28T06:54:42.577Z,6.68
2023-04-28T06:57:13.032Z,5.50
2023-04-28T06:59:45.931Z,5.65
2023-04-28T07:02:16.323Z,5.78
2023-04-28T07:04:47.020Z,4.95
2023-04-28T07:07:18.157Z,5.50
2023-04-28T07:09:48.504Z,5.43
2023-04-28T07:12:19.235Z,5.38
2023-04-28T07:14:49.424Z,5.28
2023-04-28T07:17:20.496Z,5.97
2023-04-28T07:19:52.411Z,5.43
2023-04-28T07:22:23.293Z,4.88
2023-04-28T07:24:54.741Z,5.40
2023-04-28T07:27:25.616Z,5.32
2023-04-28T07:29:56.251Z,5.43
2023-04-28T07:32:26.823Z,4.97
2023-04-28T07:34:57.354Z,5.30
2023-04-28T07:37:27.783Z,5.93
2023-04-28T07:39:59.092Z,4.80
2023-04-28T07:42:30.421Z,5.03
2023-04-28T07:45:00.749Z,5.40
2023-04-28T07:47:31.580Z,5.50
2023-04-28T07:50:04.910Z,5.57
2023-04-28T07:55:06.416Z,5.47
2023-04-28T07:57:37.426Z,5.18
2023-04-28T08:00:08.456Z,5.60
2023-04-28T08:02:41.789Z,6.13
2023-04-28T08:05:12.799Z,5.65
2023-04-28T08:07:43.504Z,5.75
2023-04-28T08:10:14.301Z,4.72
2023-04-28T08:12:46.664Z,5.53
2023-04-28T08:15:18.396Z,4.97
2023-04-28T08:17:49.116Z,4.70
2023-04-28T08:20:23.907Z,5.78
2023-04-28T08:22:55.382Z,5.43
2023-04-28T08:25:25.869Z,5.18
2023-04-28T08:27:57.532Z,5.60
2023-04-28T08:30:28.243Z,5.80
2023-04-28T08:32:58.720Z,5.30
2023-04-28T08:35:29.153Z,5.57
2023-04-28T08:37:59.807Z,4.90
2023-04-28T08:40:32.881Z,5.68
2023-04-28T08:43:03.341Z,5.88
2023-04-28T08:45:35.985Z,5.50
2023-04-28T08:48:08.050Z,6.45
2023-04-28T08:50:41.063Z,5.32
2023-04-28T08:53:14.330Z,4.80
2023-04-28T08:55:46.104Z,5.78
2023-04-28T08:58:17.726Z,5.18
2023-04-28T09:00:48.220Z,5.60
2023-04-28T09:03:19.840Z,5.45
2023-04-28T09:05:50.661Z,5.45
2023-04-28T09:08:21.318Z,5.60
2023-04-28T09:11:09.325Z,6.03
2023-04-28T09:13:41.665Z,5.13
2023-04-28T09:16:12.246Z,5.72
2023-04-28T09:18:58.148Z,5.40
2023-04-28T09:21:28.505Z,5.38
2023-04-28T09:23:59.184Z,5.70
2023-04-28T09:26:29.672Z,5.35
2023-04-28T09:29:15.381Z,5.15
2023-04-28T09:31:46.144Z,5.93
2023-04-28T09:34:17.166Z,5.68
2023-04-28T09:36:47.772Z,5.68
2023-04-28T09:39:33.060Z,5.53
2023-04-28T09:42:06.030Z,5.90
2023-04-28T09:47:26.981Z,5.97
2023-04-28T09:49:59.983Z,5.10
2023-04-28T09:52:30.338Z,5.60
2023-04-28T09:55:03.301Z,4.70
2023-04-28T09:57:35.081Z,5.57
2023-04-28T10:00:10.493Z,6.10
2023-04-28T10:02:43.739Z,5.32
2023-04-28T10:05:18.559Z,5.78
2023-04-28T10:07:49.254Z,5.68
2023-04-28T10:10:20.692Z,5.38
2023-04-28T10:12:51.496Z,5.47
2023-04-28T10:15:22.426Z,5.30
2023-04-28T10:17:54.145Z,5.72
2023-04-28T10:20:24.916Z,4.97
2023-04-28T10:23:22.757Z,5.70
2023-04-28T10:25:58.790Z,5.22
2023-04-28T10:28:29.863Z,5.57
2023-04-28T10:31:17.519Z,5.70
2023-04-28T10:33:48.351Z,5.43
2023-04-28T10:36:54.171Z,6.15
2023-04-28T10:39:25.587Z,5.63
2023-04-28T10:41:56.160Z,5.35
2023-04-28T10:44:33.238Z,5.60
2023-04-28T10:47:05.524Z,5.68
2023-04-28T10:50:00.592Z,6.28
2023-04-28T10:52:41.176Z,6.05
2023-04-28T10:55:43.149Z,5.25
2023-04-28T10:58:19.978Z,5.22
2023-04-28T11:00:50.519Z,5.63
2023-04-28T11:04:01.130Z,5.32
2023-04-28T11:06:42.250Z,5.78
2023-04-28T11:09:16.171Z,5.30
2023-04-28T11:14:41.755Z,5.32
2023-04-28T11:17:18.741Z,5.47
2023-04-28T11:19:52.814Z,5.38
2023-04-28T11:22:25.496Z,6.35
2023-04-28T11:25:03.480Z,5.88
2023-04-28T11:27:36.128Z,5.03
2023-04-28T11:30:21.431Z,5.82
2023-04-28T11:32:53.089Z,5.00
2023-04-28T11:35:23.667Z,5.53
2023-04-28T11:38:05.871Z,5.68
2023-04-28T11:40:36.868Z,5.38
2023-04-28T11:43:08.234Z,6.28
2023-04-28T11:45:39.193Z,6.03
2023-04-28T11:48:24.963Z,5.57
2023-04-28T11:50:55.456Z,5.22
2023-04-28T11:53:46.349Z,5.85
2023-04-28T11:56:17.599Z,5.85
2023-04-28T11:58:48.034Z,5.97
2023-04-28T12:01:18.468Z,5.38
2023-04-28T12:03:50.412Z,6.43
2023-04-28T12:06:21.940Z,5.83
2023-04-28T12:08:55.862Z,5.97
2023-04-28T12:11:26.599Z,6.00
2023-04-28T12:14:07.777Z,5.60
2023-04-28T12:16:46.538Z,6.22
2023-04-28T12:19:18.162Z,5.50
2023-04-28T12:22:09.045Z,6.18
2023-04-28T12:24:40.567Z,6.05
2023-04-28T12:27:26.417Z,5.78
2023-04-28T12:29:57.934Z,6.07
2023-04-28T12:32:44.545Z,7.15
2023-04-28T12:35:15.155Z,6.93
2023-04-28T12:37:46.229Z,6.47
2023-04-28T12:40:16.660Z,5.85
2023-04-28T12:42:47.574Z,6.40
2023-04-28T12:45:18.249Z,6.70
2023-04-28T12:47:49.602Z,6.80
2023-04-28T12:50:20.733Z,6.43
2023-04-28T12:52:51.142Z,6.60
2023-04-28T12:55:22.338Z,6.32
2023-04-28T12:57:54.777Z,5.93
2023-04-28T13:00:26.596Z,7.30
2023-04-28T13:03:00.082Z,7.10
2023-04-28T13:05:31.708Z,6.72
2023-04-28T13:08:02.204Z,6.90
2023-04-28T13:10:33.514Z,7.10
2023-04-28T13:13:04.653Z,7.65
2023-04-28T13:15:35.810Z,7.35
2023-04-28T13:18:07.941Z,7.72
2023-04-28T13:20:38.736Z,7.20
2023-04-28T13:23:09.146Z,7.07
2023-04-28T13:25:39.746Z,7.45
2023-04-28T13:28:10.195Z,7.45
2023-04-28T13:30:40.601Z,7.45
2023-04-28T13:33:11.271Z,8.23
2023-04-28T13:35:42.032Z,7.68
2023-04-28T13:38:12.831Z,7.65
2023-04-28T13:40:43.917Z,7.78
2023-04-28T13:43:14.314Z,7.85
2023-04-28T13:45:44.944Z,7.97
2023-04-28T13:48:15.450Z,7.53
2023-04-28T13:50:45.910Z,8.07
2023-04-28T13:53:16.924Z,8.52
2023-04-28T13:55:48.878Z,7.60
2023-04-28T13:58:20.329Z,7.78
2023-04-28T14:00:50.607Z,8.45
2023-04-28T14:03:23.418Z,8.60
2023-04-28T14:05:59.505Z,7.97
2023-04-28T14:08:30.719Z,8.75
2023-04-28T14:11:01.387Z,7.25
2023-04-28T14:13:32.221Z,8.73
2023-04-28T14:16:03.056Z,8.20
2023-04-28T14:18:35.343Z,8.30
2023-04-28T14:21:09.540Z,8.73
2023-04-28T14:23:40.924Z,8.77
2023-04-28T14:26:11.379Z,8.50
2023-04-28T14:28:41.796Z,9.45
2023-04-28T14:31:12.447Z,8.43
2023-04-28T14:33:43.780Z,8.25
2023-04-28T14:36:14.079Z,9.27
2023-04-28T14:38:44.457Z,8.95
2023-04-28T14:41:14.926Z,9.65
2023-04-28T14:43:46.360Z,8.90
2023-04-28T14:46:19.003Z,8.90
2023-04-28T14:48:49.794Z,10.15
2023-04-28T14:51:20.362Z,9.00
2023-04-28T14:53:50.729Z,9.32
2023-04-28T14:56:21.978Z,9.30
2023-04-28T14:58:52.308Z,9.07
2023-04-28T15:01:22.883Z,9.10
2023-04-28T15:03:53.730Z,8.32
2023-04-28T15:06:24.271Z,8.95
2023-04-28T15:08:55.597Z,8.65
2023-04-28T15:11:26.061Z,8.85
2023-04-28T15:13:56.543Z,8.80
2023-04-28T15:16:27.225Z,9.48
2023-04-28T15:18:57.663Z,8.70
2023-04-28T15:21:30.051Z,8.07
2023-04-28T15:24:03.650Z,8.30
2023-04-28T15:26:34.072Z,8.95
2023-04-28T15:29:04.767Z,8.50
2023-04-28T15:31:35.164Z,8.93
2023-04-28T15:34:05.865Z,9.23
2023-04-28T15:36:46.234Z,8.82
2023-04-28T15:39:17.851Z,8.82
2023-04-28T15:41:49.255Z,7.90
2023-04-28T15:44:19.644Z,9.50
2023-04-28T15:46:51.297Z,8.52
2023-04-28T15:49:22.738Z,8.02
2023-04-28T15:51:53.704Z,8.68
2023-04-28T15:54:24.138Z,9.35
2023-04-28T15:56:54.580Z,9.90
2023-04-28T15:59:25.877Z,9.20
2023-04-28T16:01:56.853Z,9.07
2023-04-28T16:04:28.176Z,10.50
2023-04-28T16:07:00.332Z,8.25
2023-04-28T16:09:32.724Z,9.23
2023-04-28T16:12:05.809Z,9.30
2023-04-28T16:14:37.508Z,9.32
2023-04-28T16:17:08.065Z,10.23
2023-04-28T16:19:38.798Z,9.35
2023-04-28T16:22:09.441Z,9.95
2023-04-28T16:24:45.176Z,8.88
2023-04-28T16:27:15.771Z,9.07
2023-04-28T16:29:47.380Z,8.48
2023-04-28T16:32:18.292Z,9.27
2023-04-28T16:34:49.693Z,9.10
2023-04-28T16:37:20.398Z,8.48
2023-04-28T16:39:51.958Z,10.00
2023-04-28T16:42:23.853Z,8.85
2023-04-28T16:44:54.861Z,9.50
2023-04-28T16:47:25.109Z,8.65
2023-04-28T16:49:55.798Z,8.95
2023-04-28T16:52:26.010Z,8.45
2023-04-28T16:54:56.505Z,8.32
2023-04-28T16:57:27.163Z,9.73
2023-04-28T16:59:57.510Z,9.38
2023-04-28T17:02:28.416Z,9.13
2023-04-28T17:04:58.844Z,9.23
2023-04-28T17:07:29.799Z,8.70
2023-04-28T17:10:00.280Z,9.55
2023-04-28T17:12:30.658Z,9.05
2023-04-28T17:15:01.219Z,9.23
2023-04-28T17:17:31.836Z,9.60
2023-04-28T17:20:03.845Z,9.10
2023-04-28T17:22:34.722Z,9.30
2023-04-28T17:25:05.474Z,8.93
2023-04-28T17:27:35.990Z,9.93
2023-04-28T17:30:07.820Z,9.35
2023-04-28T17:32:38.979Z,9.38
2023-04-28T17:35:10.408Z,8.75
2023-04-28T17:37:40.752Z,9.45
2023-04-28T17:40:11.857Z,9.65
2023-04-28T17:42:42.315Z,8.82
2023-04-28T17:45:14.069Z,8.75
2023-04-28T17:47:44.449Z,9.80
2023-04-28T17:50:14.869Z,9.57
2023-04-28T17:52:45.300Z,8.85
2023-04-28T17:55:16.292Z,9.10
2023-04-28T17:57:46.653Z,9.88
2023-04-28T18:00:17.811Z,9.65
2023-04-28T18:02:48.271Z,9.00
2023-04-28T18:05:19.032Z,9.13
2023-04-28T18:07:49.411Z,9.02
2023-04-28T18:10:20.053Z,9.63
2023-04-28T18:12:52.193Z,8.48
2023-04-28T18:15:24.623Z,8.93
2023-04-28T18:17:55.160Z,8.57
2023-04-28T18:20:26.004Z,9.40
2023-04-28T18:22:58.014Z,8.13
2023-04-28T18:25:29.495Z,9.00
2023-04-28T18:28:00.187Z,8.75
2023-04-28T18:30:39.596Z,9.18
2023-04-28T18:33:10.886Z,8.80
2023-04-28T18:35:41.693Z,9.32
2023-04-28T18:38:12.181Z,8.95
2023-04-28T18:40:43.060Z,9.05
2023-04-28T18:43:13.571Z,9.02
2023-04-28T18:45:44.223Z,9.10
2023-04-28T18:48:15.133Z,8.80
2023-04-28T18:50:46.546Z,9.52
2023-04-28T18:53:17.648Z,9.07
2023-04-28T18:55:47.898Z,8.82
2023-04-28T18:58:18.679Z,8.60
2023-04-28T19:00:50.698Z,7.95
2023-04-28T19:03:21.870Z,9.63
2023-04-28T19:05:52.990Z,9.55
2023-04-28T19:08:23.178Z,8.95
2023-04-28T19:10:53.752Z,8.52
2023-04-28T19:13:24.332Z,8.35
2023-04-28T19:15:57.804Z,9.00
2023-04-28T19:18:30.168Z,8.98
2023-04-28T19:21:02.353Z,8.77
2023-04-28T19:23:34.127Z,8.73
2023-04-28T19:26:04.789Z,8.25
2023-04-28T19:28:35.728Z,8.23
2023-04-28T19:31:06.353Z,9.85
2023-04-28T19:33:36.918Z,9.38
2023-04-28T19:36:11.378Z,9.00
2023-04-28T19:38:41.693Z,9.23
2023-04-28T19:41:12.040Z,9.38
2023-04-28T19:43:42.227Z,8.48
2023-04-28T19:46:12.642Z,8.07
2023-04-28T19:48:43.174Z,8.40
2023-04-28T19:51:13.754Z,9.40
2023-04-28T19:53:47.796Z,9.10
2023-04-28T19:56:18.755Z,9.35
2023-04-28T19:58:50.020Z,9.38
2023-04-28T20:01:20.820Z,11.20
2023-04-28T20:03:51.416Z,9.85
2023-04-28T20:06:21.969Z,9.70
2023-04-28T20:08:53.010Z,9.05
2023-04-28T20:11:23.226Z,10.57
2023-04-28T20:13:54.036Z,9.95
2023-04-28T20:16:27.960Z,9.63
2023-04-28T20:18:58.538Z,10.30
2023-04-28T20:21:29.722Z,9.70
2023-04-28T20:24:00.450Z,9.63
2023-04-28T20:26:32.710Z,10.48
2023-04-28T20:29:03.061Z,8.52
2023-04-28T20:31:34.052Z,9.45
2023-04-28T20:34:06.344Z,10.30
2023-04-28T20:39:09.168Z,9.68
2023-04-28T20:41:42.324Z,10.15
2023-04-28T20:44:13.483Z,9.50
2023-04-28T20:46:43.898Z,10.13
2023-04-28T20:49:14.902Z,9.52
2023-04-28T20:51:48.174Z,10.40
2023-04-28T20:54:18.845Z,9.82
2023-04-28T20:56:49.219Z,10.65
2023-04-28T20:59:19.773Z,10.75
2023-04-28T21:01:50.162Z,10.73
2023-04-28T21:04:20.693Z,11.18
2023-04-28T21:06:53.179Z,12.18
2023-04-28T21:09:26.368Z,11.50
2023-04-28T21:14:27.816Z,11.95
2023-04-28T21:16:58.932Z,11.23
2023-04-28T21:19:30.171Z,11.90
2023-04-28T21:22:01.078Z,11.02
2023-04-28T21:24:31.430Z,12.02
2023-04-28T21:27:01.942Z,11.00
2023-04-28T21:29:32.435Z,12.32
2023-04-28T21:32:02.942Z,12.70
2023-04-28T21:34:34.042Z,11.88
2023-04-28T21:37:04.921Z,11.05
2023-04-28T21:39:35.357Z,11.75
2023-04-28T21:42:07.835Z,11.60
2023-04-28T21:44:39.006Z,12.93
2023-04-28T21:47:10.508Z,12.18
2023-04-28T21:49:41.461Z,12.00
2023-04-28T21:52:12.299Z,12.43
2023-04-28T21:54:43.206Z,11.95
2023-04-28T21:57:13.791Z,12.73
2023-04-28T21:59:44.067Z,12.25
2023-04-28T22:02:15.314Z,11.98
2023-04-28T22:04:46.221Z,11.13
2023-04-28T22:07:16.619Z,11.57
2023-04-28T22:09:47.742Z,12.93
2023-04-28T22:12:18.688Z,13.43
2023-04-28T22:14:49.065Z,12.73
2023-04-28T22:17:19.701Z,11.73
2023-04-28T22:19:50.948Z,12.23
2023-04-28T22:22:21.773Z,12.60
2023-04-28T22:24:53.846Z,13.65
2023-04-28T22:27:24.184Z,13.20
2023-04-28T22:29:55.021Z,12.40
2023-04-28T22:32:25.471Z,12.02
2023-04-28T22:34:56.010Z,12.52
2023-04-28T22:37:26.297Z,11.60
2023-04-28T22:39:56.971Z,11.68
2023-04-28T22:42:27.191Z,11.75
2023-04-28T22:44:57.659Z,12.30
2023-04-28T22:47:28.852Z,11.80
2023-04-28T22:49:59.567Z,12.68
2023-04-28T22:52:30.137Z,12.02
2023-04-28T22:55:00.678Z,12.27
2023-04-28T22:57:31.386Z,11.98
2023-04-28T23:00:01.822Z,13.02
2023-04-28T23:02:32.366Z,12.38
2023-04-28T23:05:02.814Z,12.57
2023-04-28T23:07:33.156Z,12.32
2023-04-28T23:10:04.187Z,11.50
2023-04-28T23:12:34.548Z,12.68
2023-04-28T23:15:05.922Z,12.25
2023-04-28T23:17:36.404Z,12.68
2023-04-28T23:20:07.968Z,12.00
2023-04-28T23:22:38.386Z,12.70
2023-04-28T23:25:09.180Z,11.73
2023-04-28T23:27:39.686Z,11.77
2023-04-28T23:30:11.534Z,12.88
2023-04-28T23:32:43.948Z,13.27
2023-04-28T23:35:15.478Z,11.40
2023-04-28T23:37:45.995Z,12.23
2023-04-28T23:40:16.886Z,12.02
2023-04-28T23:42:47.956Z,11.18
2023-04-28T23:45:18.335Z,12.40
2023-04-28T23:47:49.259Z,12.85
2023-04-28T23:50:19.830Z,12.52
2023-04-28T23:52:51.251Z,10.52
2023-04-28T23:55:21.875Z,10.85
2023-04-28T23:57:52.862Z,11.15
